Villa El Recreo, Puerto Rico
Current Conditions -  °F | °C
As of 12:53 PM on Tuesday 21 Oct 2014 (Local Time) from TJNR Reporting Station
Clear Clear  
Wind Chill: 31°   Ceiling: Unl
Heat Index: 35°   Visibility: 10mi
Dew Point: 22°   Wind: 9mph
Humidity: 59%   Direction: 100°E
Pressure: 29.95"   Gusts: NA
Location:  18.0547°N, 65.8738°W
Report Text: TJNR 211653Z AUTO 10008KT 10SM CLR 31/22 A2995 RMK AO2 SLP143 T03110222
Loading
Personal Weather Stations






























Interactive Weather Map
Tropical Storm Tracking
New forecast layout! Learn more

10-Day Weather Forecast

Advertisements
Track Severe Weather on mobile